Cleveland, Ohio
Traffic Map
Current Weather Conditions
Cleveland, Ohio
Clear
Clear
21°
Feels Like: 21°
Wind Chill: 21° Ceiling: Unl
Heat Index: 21° Visibility: 10mi
Dew Point: 10° Wind: 14mph
Humidity: 51% Direction: 290° (WNW)
Pressure: 29.98in Gusts: 0mph
Raw Report DataKBKL 292053Z 29012KT 10SM CLR 21/10 A2998 RMK AO2 SLP151 T02060100 56009 $
Traffic Incident Summary
Active as of:
Severity:
Category:
InformationThere was an issue retrieving the traffic information for this location. Please try a different location or try again shortly.
Advertisements
Track Severe Weather on mobile